Time;durP1;ratioP1;P1;durP2;ratioP2;P2;SDS_P1;SDS_P2;PMS_P1;PMS_P2;Temp;Humidity;BMP_temperature;BMP_pressure;BME280_temperature;BME280_humidity;BME280_pressure;Samples;Min_cycle;Max_cycle;Signal;HPM_P1;HPM_P2
2023/05/11 00:01:18;;;;;;;12.18;6.35;;;17.90;90.50;;;;;;3972175;29;20054;-48
2023/05/11 00:03:59;;;;;;;23.38;6.35;;;17.90;90.50;;;;;;3971608;29;20504;-52
2023/05/11 00:06:40;;;;;;;12.30;6.15;;;17.90;90.50;;;;;;3971745;29;20057;-53
2023/05/11 00:09:21;;;;;;;8.73;6.18;;;17.90;90.60;;;;;;3971638;29;20062;-54
2023/05/11 00:12:02;;;;;;;9.27;5.97;;;17.90;90.50;;;;;;3971862;29;20506;-52
2023/05/11 00:14:44;;;;;;;13.35;6.40;;;17.90;90.40;;;;;;3960223;29;20061;-52
2023/05/11 00:17:25;;;;;;;25.02;6.72;;;17.90;90.50;;;;;;3971873;29;20552;-53
2023/05/11 00:20:07;;;;;;;7.95;6.60;;;17.90;90.50;;;;;;3971586;29;20058;-53
2023/05/11 00:22:48;;;;;;;6.90;6.20;;;17.90;90.20;;;;;;3971598;29;20054;-49
2023/05/11 00:25:29;;;;;;;7.20;6.47;;;17.90;90.00;;;;;;3971280;29;20065;-51
2023/05/11 00:28:11;;;;;;;8.85;7.00;;;17.90;90.20;;;;;;3971735;29;20058;-51
2023/05/11 00:30:57;;;;;;;6.60;5.90;;;17.90;90.40;;;;;;3971326;29;20524;-51
2023/05/11 00:33:38;;;;;;;11.60;6.57;;;17.90;90.20;;;;;;3971387;29;20524;-47
2023/05/11 00:36:19;;;;;;;7.90;6.10;;;17.90;90.30;;;;;;3956499;29;20046;-46
2023/05/11 00:39:00;;;;;;;8.52;6.90;;;17.90;90.30;;;;;;3956589;29;20094;-50
2023/05/11 00:41:41;;;;;;;9.65;6.30;;;17.80;90.40;;;;;;3956742;29;20058;-47
2023/05/11 00:44:21;;;;;;;7.70;7.00;;;17.80;90.50;;;;;;3960581;29;20058;-47
2023/05/11 00:47:04;;;;;;;10.93;8.23;;;17.80;90.60;;;;;;3960462;29;20653;-46
2023/05/11 00:49:46;;;;;;;8.88;7.63;;;17.80;90.60;;;;;;3960291;29;20057;-45
2023/05/11 00:52:27;;;;;;;11.38;8.27;;;17.80;90.50;;;;;;3971198;29;20098;-47
2023/05/11 00:55:10;;;;;;;11.77;8.32;;;17.80;90.50;;;;;;3971581;29;20053;-44
2023/05/11 00:57:51;;;;;;;15.55;10.07;;;17.80;90.50;;;;;;3971259;29;20601;-46
2023/05/11 01:00:31;;;;;;;18.50;11.70;;;17.80;90.60;;;;;;3971394;29;20061;-49
2023/05/11 01:03:14;;;;;;;30.10;12.13;;;17.80;90.60;;;;;;3971566;29;20070;-50
2023/05/11 01:06:06;;;;;;;23.42;10.82;;;17.80;90.50;;;;;;3971503;29;20062;-51
2023/05/11 01:08:52;;;;;;;20.85;11.57;;;17.80;90.40;;;;;;3959536;29;20062;-50
2023/05/11 01:11:41;;;;;;;23.08;12.88;;;17.80;90.50;;;;;;3960140;29;20061;-49
2023/05/11 01:14:27;;;;;;;26.55;13.73;;;17.80;91.00;;;;;;3971244;29;20138;-47
2023/05/11 01:17:15;;;;;;;26.50;13.60;;;17.80;90.70;;;;;;3949813;29;20097;-49
2023/05/11 01:20:02;;;;;;;24.08;12.43;;;17.80;90.80;;;;;;3959908;29;20057;-46
2023/05/11 01:23:08;;;;;;;26.63;13.48;;;17.80;90.80;;;;;;3960114;29;20112;-44
2023/05/11 01:26:10;;;;;;;20.73;12.15;;;17.80;90.70;;;;;;3958263;29;20122;-44
2023/05/11 01:29:13;;;;;;;25.10;13.27;;;17.80;90.70;;;;;;3959658;29;20057;-46
2023/05/11 01:31:57;;;;;;;23.92;12.85;;;17.80;90.60;;;;;;3959190;29;20498;-47
2023/05/11 01:34:41;;;;;;;25.20;12.98;;;17.80;90.90;;;;;;3948976;29;20092;-47
2023/05/11 01:37:24;;;;;;;25.10;14.52;;;17.80;90.90;;;;;;3959418;29;20063;-48
2023/05/11 01:40:10;;;;;;;23.95;14.55;;;17.80;90.80;;;;;;3970971;29;20085;-46
2023/05/11 01:42:56;;;;;;;29.92;14.98;;;17.80;90.60;;;;;;3959628;29;20184;-47
2023/05/11 01:45:41;;;;;;;37.00;16.08;;;17.70;90.90;;;;;;3955901;30;20431;-48
2023/05/11 01:48:27;;;;;;;38.85;16.25;;;17.80;90.50;;;;;;3955130;29;20181;-48
2023/05/11 01:51:09;;;;;;;36.03;16.08;;;17.70;90.30;;;;;;3956002;29;20058;-46
2023/05/11 01:53:53;;;;;;;32.63;17.40;;;17.70;90.30;;;;;;3960986;29;20065;-48
2023/05/11 01:56:36;;;;;;;30.08;16.52;;;17.70;90.40;;;;;;3959909;29;20061;-45
2023/05/11 01:59:18;;;;;;;35.17;17.83;;;17.70;90.50;;;;;;3959763;29;20065;-46
2023/05/11 02:02:01;;;;;;;38.53;18.63;;;17.70;90.60;;;;;;3971008;29;20057;-45
2023/05/11 02:04:45;;;;;;;43.22;19.35;;;17.70;90.70;;;;;;3970868;29;20074;-49
2023/05/11 02:07:29;;;;;;;40.45;18.98;;;17.70;90.80;;;;;;3970657;29;20572;-50
2023/05/11 02:10:11;;;;;;;40.28;19.10;;;17.70;90.80;;;;;;3959253;29;20193;-49
2023/05/11 02:12:53;;;;;;;38.05;19.27;;;17.70;90.80;;;;;;3959555;29;20081;-49
2023/05/11 02:15:40;;;;;;;41.10;19.48;;;17.70;90.70;;;;;;3944842;29;20058;-48
2023/05/11 02:18:21;;;;;;;37.22;19.35;;;17.70;90.60;;;;;;3944987;30;20050;-49
2023/05/11 02:21:12;;;;;;;29.38;17.33;;;17.70;90.60;;;;;;3944381;29;20483;-48
2023/05/11 02:23:53;;;;;;;36.78;19.60;;;17.70;90.70;;;;;;3951360;29;20506;-47
2023/05/11 02:26:35;;;;;;;37.70;19.98;;;17.70;90.80;;;;;;3969733;29;20135;-50
2023/05/11 02:29:16;;;;;;;;;;;17.70;90.80;;;;;;3973016;29;20086;-46
2023/05/11 02:32:03;;;;;;;33.47;17.77;;;17.70;90.90;;;;;;3961809;29;20338;-44
2023/05/11 02:34:48;;;;;;;30.05;16.35;;;17.70;91.30;;;;;;3951294;29;20187;-46
2023/05/11 02:37:33;;;;;;;29.00;16.20;;;17.70;91.10;;;;;;3961618;29;20061;-45
2023/05/11 02:40:18;;;;;;;33.50;18.23;;;17.70;90.80;;;;;;3961918;29;20514;-49
2023/05/11 02:43:08;;;;;;;32.42;16.60;;;17.70;90.40;;;;;;3971931;29;20431;-46
2023/05/11 02:45:53;;;;;;;36.42;18.42;;;17.70;90.30;;;;;;3961723;29;20057;-44
2023/05/11 02:48:43;;;;;;;30.65;17.98;;;17.70;90.40;;;;;;3972709;29;20054;-47
2023/05/11 02:51:31;;;;;;;34.33;16.40;;;17.60;90.00;;;;;;3961845;29;20073;-46
2023/05/11 02:54:15;;;;;;;39.80;17.23;;;17.60;90.10;;;;;;3972872;29;20111;-45
2023/05/11 02:57:02;;;;;;;35.17;18.10;;;17.60;90.30;;;;;;3961412;29;20511;-44
2023/05/11 02:59:45;;;;;;;32.22;16.45;;;17.60;90.30;;;;;;3972798;29;20168;-50
2023/05/11 03:02:26;;;;;;;46.75;18.00;;;17.60;90.30;;;;;;3951168;29;20057;-47
2023/05/11 03:05:07;;;;;;;;;;;17.60;89.80;;;;;;3973179;29;20504;-47
2023/05/11 03:07:48;;;;;;;26.13;15.65;;;17.60;89.30;;;;;;3973151;29;19932;-45
2023/05/11 03:10:31;;;;;;;31.17;15.25;;;17.60;90.30;;;;;;3961822;29;20195;-48
2023/05/11 03:13:12;;;;;;;31.48;15.88;;;17.50;90.30;;;;;;3961613;29;20089;-49
2023/05/11 03:15:55;;;;;;;36.17;16.48;;;17.50;90.50;;;;;;3972111;29;20053;-49
2023/05/11 03:18:36;;;;;;;42.92;18.80;;;17.50;90.30;;;;;;3961494;29;20058;-49
2023/05/11 03:21:20;;;;;;;51.05;20.67;;;17.50;90.80;;;;;;3972446;29;20066;-48
2023/05/11 03:24:01;;;;;;;58.00;18.48;;;17.50;90.60;;;;;;3960849;29;20065;-50
2023/05/11 03:26:46;;;;;;;46.35;18.85;;;17.50;90.90;;;;;;3960891;29;20081;-47
2023/05/11 03:29:28;;;;;;;47.38;18.17;;;17.50;90.60;;;;;;3961027;29;20510;-46
2023/05/11 03:32:09;;;;;;;41.17;18.85;;;17.50;90.70;;;;;;3960079;29;20082;-45
2023/05/11 03:34:52;;;;;;;39.03;18.80;;;17.50;90.60;;;;;;3961252;29;20062;-48
2023/05/11 03:37:36;;;;;;;41.08;19.15;;;17.50;90.50;;;;;;3972654;29;20406;-49
2023/05/11 03:40:21;;;;;;;49.97;20.17;;;17.50;90.20;;;;;;3951024;29;20066;-47
2023/05/11 03:43:08;;;;;;;45.15;19.38;;;17.50;90.10;;;;;;3961002;29;20054;-46
2023/05/11 03:45:52;;;;;;;48.80;21.70;;;17.50;90.20;;;;;;3961196;29;20062;-49
2023/05/11 03:48:35;;;;;;;55.60;22.58;;;17.50;90.30;;;;;;3961131;29;20392;-50
2023/05/11 03:51:16;;;;;;;;;;;17.50;90.30;;;;;;3972703;29;20066;-48
2023/05/11 03:53:57;;;;;;;51.83;22.55;;;17.50;90.20;;;;;;3960293;29;20015;-46
2023/05/11 03:56:38;;;;;;;59.25;24.67;;;17.50;90.40;;;;;;3960520;29;20054;-45
2023/05/11 03:59:21;;;;;;;54.67;23.77;;;17.50;89.80;;;;;;3960961;29;20061;-46
2023/05/11 04:02:03;;;;;;;51.97;21.75;;;17.50;90.00;;;;;;3961018;29;20058;-48
2023/05/11 04:04:44;;;;;;;53.88;23.58;;;17.40;90.10;;;;;;3970857;29;20114;-45
2023/05/11 04:07:25;;;;;;;47.15;21.45;;;17.40;90.20;;;;;;3957362;29;20066;-50
2023/05/11 04:10:08;;;;;;;38.78;19.05;;;17.40;90.00;;;;;;3956230;29;20058;-48
2023/05/11 04:12:49;;;;;;;27.55;14.07;;;17.40;90.20;;;;;;3961483;29;20067;-46
2023/05/11 04:15:31;;;;;;;21.83;12.38;;;17.40;90.00;;;;;;3960381;29;20568;-49
2023/05/11 04:18:12;;;;;;;19.23;12.43;;;17.40;90.10;;;;;;3960564;29;20061;-48
2023/05/11 04:20:54;;;;;;;16.50;10.45;;;17.40;90.00;;;;;;3971829;29;20208;-47
2023/05/11 04:23:35;;;;;;;20.75;11.65;;;17.40;90.30;;;;;;3971513;29;20054;-48
2023/05/11 04:26:15;;;;;;;17.40;11.60;;;17.40;90.00;;;;;;3971662;29;20502;-51
2023/05/11 04:28:57;;;;;;;13.70;9.75;;;17.40;90.10;;;;;;3971994;29;20886;-51
2023/05/11 04:31:39;;;;;;;14.30;9.57;;;17.40;90.20;;;;;;3970831;29;20050;-49
2023/05/11 04:34:20;;;;;;;16.55;11.10;;;17.40;90.20;;;;;;3960615;29;20410;-50
2023/05/11 04:37:06;;;;;;;15.60;11.18;;;17.40;90.20;;;;;;3971870;29;20057;-52
2023/05/11 04:39:47;;;;;;;17.27;10.82;;;17.40;90.10;;;;;;3959971;29;20054;-49
2023/05/11 04:42:29;;;;;;;;;;;17.40;90.20;;;;;;3960385;29;20122;-53
2023/05/11 04:45:12;;;;;;;18.25;11.13;;;17.40;90.20;;;;;;3953829;29;19982;-49
2023/05/11 04:47:54;;;;;;;14.07;9.90;;;17.40;90.50;;;;;;3971716;29;20058;-51
2023/05/11 04:50:37;;;;;;;12.10;9.50;;;17.40;90.20;;;;;;3959577;29;20510;-49
2023/05/11 04:53:18;;;;;;;13.02;9.43;;;17.40;90.20;;;;;;3960481;29;20123;-50
2023/05/11 04:56:00;;;;;;;15.02;8.82;;;17.30;88.90;;;;;;3970510;29;20062;-48
2023/05/11 04:58:41;;;;;;;10.93;8.57;;;17.30;88.80;;;;;;3960165;29;20399;-48
2023/05/11 05:01:22;;;;;;;10.68;8.48;;;17.30;88.90;;;;;;3960140;29;20066;-53
2023/05/11 05:04:04;;;;;;;11.38;9.52;;;17.30;89.10;;;;;;3945038;29;20127;-51
2023/05/11 05:06:46;;;;;;;12.23;8.90;;;17.30;89.00;;;;;;3955503;30;20058;-53
2023/05/11 05:09:28;;;;;;;15.82;9.27;;;17.30;89.10;;;;;;3956274;29;20070;-54
2023/05/11 05:12:09;;;;;;;14.15;9.30;;;17.30;89.20;;;;;;3947775;29;20070;-51
2023/05/11 05:14:50;;;;;;;13.77;10.27;;;17.30;88.80;;;;;;3959530;29;20187;-52
2023/05/11 05:17:31;;;;;;;15.90;10.87;;;17.30;88.50;;;;;;3970873;29;20127;-54
2023/05/11 05:20:13;;;;;;;15.38;11.02;;;17.30;88.50;;;;;;3959733;29;20062;-52
2023/05/11 05:22:54;;;;;;;21.88;11.55;;;17.30;88.70;;;;;;3971235;29;20058;-53
2023/05/11 05:25:36;;;;;;;26.05;12.82;;;17.30;88.80;;;;;;3960075;29;20050;-49
2023/05/11 05:28:17;;;;;;;25.45;11.68;;;17.30;88.80;;;;;;3959899;29;20066;-51
2023/05/11 05:30:59;;;;;;;19.17;11.90;;;17.30;88.90;;;;;;3959976;29;20058;-48
2023/05/11 05:33:41;;;;;;;;;;;17.30;88.80;;;;;;3960321;29;20058;-52
2023/05/11 05:36:23;;;;;;;19.80;12.40;;;17.20;88.30;;;;;;3970652;29;20480;-50
2023/05/11 05:39:08;;;;;;;35.63;15.48;;;17.30;89.80;;;;;;3959987;29;20062;-49
2023/05/11 05:41:50;;;;;;;41.65;15.43;;;17.20;90.00;;;;;;3959864;29;20058;-53
2023/05/11 05:44:31;;;;;;;49.67;14.23;;;17.20;90.00;;;;;;3959786;29;20061;-54
2023/05/11 05:47:12;;;;;;;32.47;15.60;;;17.20;89.90;;;;;;3970732;29;20062;-51
2023/05/11 05:49:52;;;;;;;35.30;16.33;;;17.30;90.00;;;;;;3970453;29;20512;-51
2023/05/11 05:52:35;;;;;;;37.42;14.23;;;17.20;90.00;;;;;;3970359;29;20098;-48
2023/05/11 05:55:17;;;;;;;26.33;12.95;;;17.30;90.30;;;;;;3959839;29;20065;-52
2023/05/11 05:58:00;;;;;;;29.00;13.98;;;17.30;90.50;;;;;;3959331;29;20142;-48
2023/05/11 06:00:41;;;;;;;29.17;13.75;;;17.30;90.80;;;;;;3959799;29;20510;-50
2023/05/11 06:03:24;;;;;;;24.02;14.70;;;17.30;91.30;;;;;;3971622;29;20058;-47
2023/05/11 06:06:07;;;;;;;25.25;13.15;;;17.40;90.90;;;;;;3973294;29;20419;-49
2023/05/11 06:08:50;;;;;;;19.30;12.85;;;17.40;90.80;;;;;;3962299;29;20105;-54
2023/05/11 06:11:31;;;;;;;21.60;13.68;;;17.40;90.50;;;;;;3964367;29;20061;-50
2023/05/11 06:14:12;;;;;;;22.98;13.10;;;17.40;90.30;;;;;;3988189;29;20072;-54
2023/05/11 06:16:53;;;;;;;21.10;13.77;;;17.40;90.20;;;;;;3973953;29;20096;-52
2023/05/11 06:19:34;;;;;;;21.08;14.60;;;17.40;90.20;;;;;;3973740;29;20119;-51
2023/05/11 06:22:15;;;;;;;23.33;13.95;;;17.40;90.00;;;;;;3962427;29;20078;-47
2023/05/11 06:24:58;;;;;;;21.42;14.15;;;17.40;89.80;;;;;;3972801;29;20460;-45
2023/05/11 06:27:39;;;;;;;21.10;14.38;;;17.40;89.50;;;;;;3974777;29;20142;-44
2023/05/11 06:30:21;;;;;;;28.83;14.30;;;17.30;89.10;;;;;;3986507;29;20057;-44
2023/05/11 06:33:04;;;;;;;18.42;13.25;;;17.30;89.10;;;;;;3987486;29;20049;-46
2023/05/11 06:35:45;;;;;;;20.65;14.18;;;17.30;89.40;;;;;;3977159;29;20053;-47
2023/05/11 06:38:28;;;;;;;20.27;13.90;;;17.30;90.30;;;;;;3987543;29;20057;-44
2023/05/11 06:41:10;;;;;;;21.88;14.52;;;17.30;90.10;;;;;;3977240;29;20539;-47
2023/05/11 06:43:51;;;;;;;21.73;12.73;;;17.30;90.00;;;;;;3988182;29;20439;-45
2023/05/11 06:46:40;;;;;;;17.17;12.32;;;17.30;89.50;;;;;;3988235;29;20052;-47
2023/05/11 06:49:21;;;;;;;19.30;11.02;;;17.30;89.50;;;;;;3969275;29;20171;-44
2023/05/11 06:52:02;;;;;;;15.75;10.35;;;17.30;89.60;;;;;;3970619;29;20126;-46
2023/05/11 06:54:44;;;;;;;17.55;10.70;;;17.30;89.50;;;;;;3973223;29;20066;-44
2023/05/11 06:57:26;;;;;;;24.73;10.55;;;17.30;89.60;;;;;;3973082;29;20165;-53
2023/05/11 07:00:08;;;;;;;11.73;9.77;;;17.30;90.20;;;;;;3972916;29;20061;-52
2023/05/11 07:02:49;;;;;;;12.68;10.82;;;17.30;89.60;;;;;;3972874;29;20057;-53
2023/05/11 07:05:30;;;;;;;14.23;10.23;;;17.30;89.60;;;;;;3972141;29;20521;-50
2023/05/11 07:08:11;;;;;;;18.45;11.73;;;17.30;89.50;;;;;;3972835;29;20062;-51
2023/05/11 07:10:52;;;;;;;17.55;11.70;;;17.30;89.10;;;;;;3972980;29;20057;-49
2023/05/11 07:13:35;;;;;;;17.83;10.85;;;17.30;89.10;;;;;;3972743;29;20057;-51
2023/05/11 07:16:15;;;;;;;12.38;10.55;;;17.30;89.20;;;;;;3972735;29;20525;-49
2023/05/11 07:18:56;;;;;;;14.27;10.88;;;17.30;90.00;;;;;;3973005;29;20530;-53
2023/05/11 07:21:37;;;;;;;13.23;10.90;;;17.30;89.10;;;;;;3971841;29;20407;-51
2023/05/11 07:24:18;;;;;;;12.85;11.25;;;17.30;89.10;;;;;;3972455;29;20077;-74
2023/05/11 07:27:00;;;;;;;12.73;10.50;;;17.20;89.80;;;;;;3967997;29;20065;-54
2023/05/11 07:29:43;;;;;;;14.45;11.18;;;17.20;89.20;;;;;;3972661;29;20511;-54
2023/05/11 07:32:23;;;;;;;12.40;10.93;;;17.20;89.50;;;;;;3970683;29;20055;-52
2023/05/11 07:35:05;;;;;;;13.03;11.13;;;17.20;89.80;;;;;;3971586;29;20119;-54
2023/05/11 07:37:46;;;;;;;12.07;10.27;;;17.20;90.00;;;;;;3960342;29;20058;-51
2023/05/11 07:40:27;;;;;;;12.90;11.50;;;17.20;90.00;;;;;;3972052;29;20522;-49
2023/05/11 07:43:08;;;;;;;14.73;12.00;;;17.30;90.00;;;;;;3971892;29;20066;-55
2023/05/11 07:45:51;;;;;;;14.35;11.77;;;17.30;89.90;;;;;;3971461;29;20199;-55
2023/05/11 07:48:32;;;;;;;14.55;11.70;;;17.30;89.90;;;;;;3972115;29;20064;-54
2023/05/11 07:51:13;;;;;;;12.77;11.50;;;17.30;90.00;;;;;;3971129;29;20455;-54
2023/05/11 07:53:54;;;;;;;;;;;17.30;89.70;;;;;;3972492;29;20208;-46
2023/05/11 07:56:35;;;;;;;15.95;11.55;;;17.30;89.40;;;;;;3972073;29;19936;-46
2023/05/11 07:59:15;;;;;;;11.63;10.32;;;17.30;89.40;;;;;;3971676;29;20062;-45
2023/05/11 08:01:58;;;;;;;12.45;11.15;;;17.30;89.40;;;;;;3970965;29;20049;-44
2023/05/11 08:04:39;;;;;;;12.68;11.23;;;17.30;89.50;;;;;;3956607;29;20062;-48
2023/05/11 08:07:20;;;;;;;10.48;9.40;;;17.30;89.70;;;;;;3966816;29;20458;-46
2023/05/11 08:10:01;;;;;;;12.30;9.80;;;17.30;89.80;;;;;;3970904;29;20054;-47
2023/05/11 08:12:42;;;;;;;11.18;10.07;;;17.30;89.90;;;;;;3971879;29;20407;-44
2023/05/11 08:15:23;;;;;;;11.23;9.40;;;17.30;90.00;;;;;;3972021;29;20050;-47
2023/05/11 08:18:06;;;;;;;10.05;9.02;;;17.30;90.10;;;;;;3970990;29;20134;-43
2023/05/11 08:20:47;;;;;;;9.70;8.80;;;17.30;90.00;;;;;;3971571;29;20058;-43
2023/05/11 08:23:28;;;;;;;8.52;7.72;;;17.30;90.30;;;;;;3959903;29;20069;-44
2023/05/11 08:26:10;;;;;;;7.03;6.40;;;17.30;90.00;;;;;;3970900;29;20077;-45
2023/05/11 08:28:51;;;;;;;7.80;7.10;;;17.30;90.10;;;;;;3970635;29;20095;-49
2023/05/11 08:31:32;;;;;;;7.88;7.20;;;17.30;90.20;;;;;;3971085;29;20057;-47
2023/05/11 08:34:14;;;;;;;7.50;6.90;;;17.30;90.30;;;;;;3971090;29;20060;-48
2023/05/11 08:37:00;;;;;;;6.32;5.82;;;17.30;90.20;;;;;;3971631;29;20086;-46
2023/05/11 08:39:41;;;;;;;6.68;6.07;;;17.30;90.50;;;;;;3971198;29;20115;-43
2023/05/11 08:42:26;;;;;;;7.57;6.88;;;17.30;90.00;;;;;;3968724;29;20057;-42
2023/05/11 08:45:09;;;;;;;6.68;6.10;;;17.30;89.90;;;;;;3970156;29;20089;-39
2023/05/11 08:47:51;;;;;;;6.40;5.80;;;17.30;90.00;;;;;;3970669;29;20175;-46
2023/05/11 08:50:33;;;;;;;7.80;7.10;;;17.30;90.10;;;;;;3971345;29;20071;-47
2023/05/11 08:53:14;;;;;;;7.15;6.55;;;17.40;90.10;;;;;;3971172;29;20552;-43
2023/05/11 08:55:57;;;;;;;7.45;6.85;;;17.40;90.00;;;;;;3970764;29;20444;-46
2023/05/11 08:58:39;;;;;;;8.02;6.85;;;17.40;89.90;;;;;;3971623;29;20062;-44
2023/05/11 09:01:23;;;;;;;7.32;6.63;;;17.40;89.80;;;;;;3968716;29;20099;-43
2023/05/11 09:04:05;;;;;;;7.88;6.90;;;17.40;90.00;;;;;;3956544;29;20127;-44
2023/05/11 09:06:49;;;;;;;8.25;7.55;;;17.40;90.00;;;;;;3963278;29;20058;-57
2023/05/11 09:09:30;;;;;;;7.28;6.60;;;17.40;90.10;;;;;;3971449;29;20078;-55
2023/05/11 09:12:11;;;;;;;;;;;17.40;90.40;;;;;;3971739;29;20062;-54
2023/05/11 09:14:52;;;;;;;9.03;8.13;;;17.40;90.00;;;;;;3971293;29;19931;-57
2023/05/11 09:17:33;;;;;;;8.32;7.63;;;17.40;90.10;;;;;;3966614;29;20056;-47
2023/05/11 09:20:14;;;;;;;8.32;7.53;;;17.40;90.10;;;;;;3986108;29;20106;-43
2023/05/11 09:22:57;;;;;;;9.40;8.50;;;17.40;90.10;;;;;;3970973;29;20165;-45
2023/05/11 09:25:38;;;;;;;8.60;7.78;;;17.40;90.10;;;;;;3968928;29;20080;-42
2023/05/11 09:28:21;;;;;;;8.80;7.90;;;17.40;90.40;;;;;;3964486;29;20136;-50
2023/05/11 09:31:05;;;;;;;8.50;7.57;;;17.50;90.10;;;;;;3956270;30;20148;-49
2023/05/11 09:33:46;;;;;;;9.68;8.10;;;17.50;90.20;;;;;;3957295;29;20408;-50
2023/05/11 09:36:27;;;;;;;9.65;8.75;;;17.50;90.30;;;;;;3972109;29;20066;-53
2023/05/11 09:39:10;;;;;;;8.55;7.75;;;17.50;90.20;;;;;;3969058;29;20066;-49
2023/05/11 09:42:19;;;;;;;8.60;7.80;;;17.60;90.00;;;;;;3973717;29;20058;-52
2023/05/11 09:45:00;;;;;;;8.50;7.68;;;17.60;89.50;;;;;;3962331;29;20057;-53
2023/05/11 09:47:42;;;;;;;8.48;7.68;;;17.60;89.60;;;;;;3974030;29;20593;-51
2023/05/11 09:50:23;;;;;;;9.23;8.43;;;17.60;89.20;;;;;;3973607;29;20135;-50
2023/05/11 09:53:06;;;;;;;9.13;8.05;;;17.70;89.10;;;;;;3973683;29;20062;-50
2023/05/11 09:55:53;;;;;;;7.88;7.18;;;17.70;89.00;;;;;;3973896;29;20066;-51
2023/05/11 09:58:47;;;;;;;8.20;7.28;;;17.70;89.00;;;;;;3962804;29;20403;-50
2023/05/11 10:01:32;;;;;;;9.13;7.40;;;17.70;89.00;;;;;;3972778;29;20061;-51
2023/05/11 10:04:13;;;;;;;8.73;7.82;;;17.70;89.10;;;;;;3973372;29;20511;-50
2023/05/11 10:07:00;;;;;;;10.02;8.35;;;17.70;89.00;;;;;;3973672;29;20062;-50
2023/05/11 10:09:41;;;;;;;8.85;8.05;;;17.80;89.10;;;;;;3973941;29;20107;-48
2023/05/11 10:12:26;;;;;;;7.68;6.97;;;17.80;89.10;;;;;;3973627;29;20060;-51
2023/05/11 10:15:09;;;;;;;8.73;7.93;;;17.80;89.10;;;;;;3962295;29;20103;-49
2023/05/11 10:17:50;;;;;;;7.88;7.18;;;17.80;88.80;;;;;;3957953;29;20054;-51
2023/05/11 10:20:31;;;;;;;9.25;7.95;;;17.90;88.60;;;;;;3958813;29;20519;-51
2023/05/11 10:23:12;;;;;;;8.60;6.55;;;17.90;88.70;;;;;;3959346;29;20599;-49
2023/05/11 10:25:54;;;;;;;;;;;18.00;88.70;;;;;;3973996;29;20062;-49
2023/05/11 10:28:37;;;;;;;7.05;6.03;;;18.00;88.70;;;;;;3962141;29;19935;-48
2023/05/11 10:31:22;;;;;;;6.85;6.25;;;18.10;88.60;;;;;;3973050;29;20138;-52
2023/05/11 10:34:04;;;;;;;7.03;6.43;;;18.10;87.90;;;;;;3972757;29;20071;-52
2023/05/11 10:36:46;;;;;;;7.50;6.80;;;18.10;87.80;;;;;;3961796;29;20058;-48
2023/05/11 10:39:28;;;;;;;7.55;6.88;;;18.20;87.90;;;;;;3973365;29;20227;-47
2023/05/11 10:42:40;;;;;;;6.32;5.72;;;18.20;88.50;;;;;;3973486;29;20070;-52
2023/05/11 10:45:27;;;;;;;5.90;5.43;;;18.30;87.40;;;;;;3973394;29;20605;-49
2023/05/11 10:48:29;;;;;;;6.78;5.95;;;18.30;87.30;;;;;;3972699;29;20143;-47
2023/05/11 10:51:41;;;;;;;6.25;5.68;;;18.30;86.40;;;;;;3972679;29;20060;-49
2023/05/11 10:54:46;;;;;;;7.03;6.40;;;18.40;86.10;;;;;;3971320;29;20497;-48
2023/05/11 10:57:45;;;;;;;6.43;5.82;;;18.40;86.50;;;;;;3972432;29;20053;-50
2023/05/11 11:01:01;;;;;;;5.97;5.47;;;18.40;86.50;;;;;;3972478;29;20139;-47
2023/05/11 11:03:42;;;;;;;6.95;6.35;;;18.40;85.30;;;;;;3972415;29;20633;-48
2023/05/11 11:06:24;;;;;;;6.70;6.10;;;18.50;85.70;;;;;;3972725;29;20057;-50
2023/05/11 11:09:07;;;;;;;6.93;6.30;;;18.50;85.70;;;;;;3971923;29;20058;-49
2023/05/11 11:11:49;;;;;;;8.90;8.00;;;18.50;85.90;;;;;;3973122;29;20521;-52
2023/05/11 11:14:54;;;;;;;7.60;6.85;;;18.50;86.00;;;;;;3961657;29;20078;-52
2023/05/11 11:17:37;;;;;;;8.25;7.07;;;18.50;85.00;;;;;;3961563;29;20054;-51
2023/05/11 11:20:47;;;;;;;7.97;7.05;;;18.50;85.60;;;;;;3961290;29;20077;-48
2023/05/11 11:23:42;;;;;;;11.32;9.77;;;18.50;84.60;;;;;;3972570;29;20437;-49
2023/05/11 11:26:47;;;;;;;10.80;9.70;;;18.50;85.40;;;;;;3972216;29;20123;-49
2023/05/11 11:29:29;;;;;;;14.20;12.55;;;18.50;85.20;;;;;;3961198;29;20629;-48
2023/05/11 11:32:27;;;;;;;11.15;9.85;;;18.50;85.40;;;;;;3972308;29;20066;-46
2023/05/11 11:35:46;;;;;;;11.02;8.95;;;18.60;85.20;;;;;;3972129;29;20062;-52
2023/05/11 11:38:27;;;;;;;9.50;8.68;;;18.60;84.70;;;;;;3971818;29;20151;-47
2023/05/11 11:41:09;;;;;;;7.65;6.95;;;18.60;85.10;;;;;;3972419;29;20075;-49
2023/05/11 11:43:54;;;;;;;8.25;7.35;;;18.60;85.10;;;;;;3972548;29;20061;-49
2023/05/11 11:46:36;;;;;;;7.28;6.13;;;18.60;84.90;;;;;;3972237;29;20566;-49
2023/05/11 11:49:17;;;;;;;6.63;5.22;;;18.60;84.50;;;;;;3972307;29;20065;-47
2023/05/11 11:51:59;;;;;;;4.78;4.43;;;18.60;84.60;;;;;;3972281;29;20414;-47
2023/05/11 11:54:41;;;;;;;4.30;4.03;;;18.60;84.70;;;;;;3972368;29;20057;-51
2023/05/11 11:57:45;;;;;;;4.70;3.35;;;18.60;84.40;;;;;;3957254;29;20511;-51
2023/05/11 12:00:26;;;;;;;3.58;3.28;;;18.60;83.90;;;;;;3956132;29;20054;-52
2023/05/11 12:03:10;;;;;;;;;;;18.60;84.50;;;;;;3957099;29;20058;-49
2023/05/11 12:05:55;;;;;;;4.75;4.35;;;18.70;84.50;;;;;;3962418;29;19936;-46
2023/05/11 12:08:39;;;;;;;3.63;3.33;;;18.70;84.60;;;;;;3971962;29;20092;-47
2023/05/11 12:11:21;;;;;;;4.55;4.18;;;18.70;83.70;;;;;;3960718;29;20058;-51
2023/05/11 12:14:03;;;;;;;4.65;4.18;;;18.70;83.60;;;;;;3971944;29;20066;-50
2023/05/11 12:17:00;;;;;;;5.20;4.70;;;18.80;84.40;;;;;;3960515;29;20054;-48
2023/05/11 12:19:43;;;;;;;4.45;4.15;;;18.80;83.30;;;;;;3971568;29;20046;-48
2023/05/11 12:22:26;;;;;;;5.07;4.78;;;18.80;83.10;;;;;;3972048;29;20115;-48
2023/05/11 12:25:10;;;;;;;5.90;5.40;;;18.80;83.40;;;;;;3971874;29;20411;-48
2023/05/11 12:27:54;;;;;;;5.43;4.90;;;18.80;82.90;;;;;;3960641;29;20131;-49
2023/05/11 12:30:34;;;;;;;6.13;5.63;;;18.80;83.40;;;;;;3971545;29;20913;-51
2023/05/11 12:33:15;;;;;;;6.10;5.45;;;18.90;83.40;;;;;;3972063;29;20061;-49
2023/05/11 12:35:57;;;;;;;5.78;5.28;;;18.90;83.30;;;;;;3960337;29;20049;-50
2023/05/11 12:38:43;;;;;;;6.60;6.00;;;18.90;83.00;;;;;;3971583;29;20077;-50
2023/05/11 12:41:26;;;;;;;7.00;5.47;;;18.90;82.90;;;;;;3959530;29;20171;-48
2023/05/11 12:44:07;;;;;;;6.50;5.90;;;19.00;82.70;;;;;;3969624;29;20418;-49
2023/05/11 12:46:50;;;;;;;7.95;6.20;;;19.00;82.50;;;;;;3956684;29;20054;-52
2023/05/11 12:49:31;;;;;;;6.50;5.80;;;19.00;82.70;;;;;;3959441;29;20627;-47
2023/05/11 12:52:13;;;;;;;5.75;4.68;;;19.00;82.10;;;;;;3971073;29;20123;-52
2023/05/11 12:54:58;;;;;;;4.45;4.00;;;19.00;82.00;;;;;;3971510;29;20146;-52
2023/05/11 12:57:41;;;;;;;11.27;4.28;;;19.10;81.90;;;;;;3970348;29;20180;-48
2023/05/11 13:00:22;;;;;;;4.35;4.05;;;19.10;81.80;;;;;;3968253;29;20399;-51
2023/05/11 13:03:03;;;;;;;3.70;3.40;;;19.10;81.60;;;;;;3971036;29;20058;-53
2023/05/11 13:05:44;;;;;;;3.83;3.13;;;19.10;81.30;;;;;;3970200;29;20074;-50
2023/05/11 13:08:25;;;;;;;;;;;19.10;81.30;;;;;;3968975;29;20065;-47
2023/05/11 13:11:20;;;;;;;3.67;3.38;;;19.10;82.00;;;;;;3973182;29;19932;-48
2023/05/11 13:14:15;;;;;;;3.35;3.05;;;19.10;80.90;;;;;;3960790;29;20518;-53
2023/05/11 13:16:56;;;;;;;3.05;2.85;;;19.10;81.00;;;;;;3956056;29;20141;-51
2023/05/11 13:19:38;;;;;;;2.83;2.72;;;19.10;81.00;;;;;;3950648;29;20058;-53
2023/05/11 13:22:19;;;;;;;2.90;2.70;;;19.10;80.90;;;;;;3970297;29;20058;-54
2023/05/11 13:25:03;;;;;;;3.15;2.95;;;19.10;81.10;;;;;;3975111;29;20406;-53
2023/05/11 13:27:44;;;;;;;3.63;3.42;;;19.20;81.10;;;;;;3962116;29;20403;-49
2023/05/11 13:30:27;;;;;;;3.58;3.38;;;19.10;81.10;;;;;;3971265;29;20061;-50
2023/05/11 13:33:08;;;;;;;3.97;3.78;;;19.10;81.10;;;;;;3971273;29;20145;-51
2023/05/11 13:35:49;;;;;;;3.25;3.03;;;19.10;81.40;;;;;;3971217;29;20517;-48
2023/05/11 13:38:30;;;;;;;5.03;3.40;;;19.10;81.40;;;;;;3971090;29;20061;-47
2023/05/11 13:41:12;;;;;;;4.20;3.85;;;19.10;81.50;;;;;;3970000;29;20062;-56
2023/05/11 13:43:53;;;;;;;4.20;3.58;;;19.10;81.50;;;;;;3945034;30;20142;-57
2023/05/11 13:46:35;;;;;;;4.05;3.65;;;19.10;81.20;;;;;;3955257;29;20078;-56
2023/05/11 13:49:16;;;;;;;3.80;3.60;;;19.10;81.50;;;;;;3956307;29;20066;-57
2023/05/11 13:51:59;;;;;;;3.58;3.20;;;19.10;81.80;;;;;;3969314;29;20050;-55
2023/05/11 13:54:39;;;;;;;3.83;3.63;;;19.10;81.60;;;;;;3971232;29;20090;-51
2023/05/11 13:57:20;;;;;;;4.50;4.10;;;19.10;81.80;;;;;;3970651;29;20142;-50
2023/05/11 14:00:05;;;;;;;4.55;4.25;;;19.10;82.00;;;;;;3970391;29;20061;-51
2023/05/11 14:02:53;;;;;;;4.28;4.00;;;19.00;82.20;;;;;;3963712;29;20530;-52